createdAt,value
2022-11-18T00:00:03.932Z,0.00
2022-11-18T00:01:03.940Z,0.00
2022-11-18T00:02:03.992Z,0.00
2022-11-18T00:03:03.955Z,0.00
2022-11-18T00:04:03.963Z,0.00
2022-11-18T00:05:03.975Z,0.00
2022-11-18T00:06:03.978Z,0.00
2022-11-18T00:07:04.026Z,0.00
2022-11-18T00:08:03.996Z,0.00
2022-11-18T00:09:04.008Z,0.00
2022-11-18T00:10:04.023Z,0.00
2022-11-18T00:11:04.023Z,0.00
2022-11-18T00:12:04.037Z,0.00
2022-11-18T00:13:04.039Z,0.00
2022-11-18T00:14:04.044Z,0.00
2022-11-18T00:15:04.056Z,0.00
2022-11-18T00:16:04.063Z,0.00
2022-11-18T00:17:04.098Z,0.00
2022-11-18T00:18:04.089Z,0.00
2022-11-18T00:19:04.091Z,0.00
2022-11-18T00:20:04.100Z,0.00
2022-11-18T00:21:04.105Z,0.00
2022-11-18T00:22:04.112Z,0.00
2022-11-18T00:23:04.119Z,0.00
2022-11-18T00:24:04.129Z,0.00
2022-11-18T00:25:04.143Z,0.00
2022-11-18T00:26:04.144Z,0.00
2022-11-18T00:27:04.156Z,0.00
2022-11-18T00:28:04.159Z,0.00
2022-11-18T00:29:04.170Z,0.00
2022-11-18T00:30:04.178Z,0.00
2022-11-18T00:31:04.184Z,0.00
2022-11-18T00:32:04.195Z,0.00
2022-11-18T00:33:04.201Z,0.00
2022-11-18T00:34:04.208Z,0.00
2022-11-18T00:35:04.221Z,0.00
2022-11-18T00:36:04.241Z,0.00
2022-11-18T00:37:04.254Z,0.00
2022-11-18T00:38:04.242Z,0.00
2022-11-18T00:39:04.250Z,0.00
2022-11-18T00:40:04.268Z,0.00
2022-11-18T00:41:04.267Z,0.00
2022-11-18T00:42:04.273Z,0.00
2022-11-18T00:43:04.283Z,0.00
2022-11-18T00:44:09.272Z,0.00
2022-11-18T00:45:04.298Z,0.00
2022-11-18T00:46:04.305Z,0.00
2022-11-18T00:47:04.312Z,0.00
2022-11-18T00:48:04.321Z,0.00
2022-11-18T00:49:04.330Z,0.00
2022-11-18T00:50:04.342Z,0.00
2022-11-18T00:51:04.344Z,0.00
2022-11-18T00:52:04.355Z,0.00
2022-11-18T00:53:04.361Z,0.00
2022-11-18T00:54:04.370Z,0.00
2022-11-18T00:55:04.389Z,0.00
2022-11-18T00:56:04.386Z,0.00
2022-11-18T00:57:04.394Z,0.00
2022-11-18T00:58:04.400Z,0.00
2022-11-18T00:59:04.409Z,0.00
2022-11-18T01:00:04.417Z,0.00
2022-11-18T01:01:04.480Z,0.00
2022-11-18T01:02:04.431Z,0.00
2022-11-18T01:03:04.440Z,0.00
2022-11-18T01:04:04.447Z,0.00
2022-11-18T01:05:04.455Z,0.00
2022-11-18T01:06:04.462Z,0.00
2022-11-18T01:07:04.514Z,0.00
2022-11-18T01:08:04.479Z,0.00
2022-11-18T01:09:04.489Z,0.00
2022-11-18T01:10:04.495Z,0.00
2022-11-18T01:11:04.505Z,0.00
2022-11-18T01:12:04.516Z,0.00
2022-11-18T01:13:04.521Z,0.00
2022-11-18T01:14:04.531Z,0.00
2022-11-18T01:15:04.536Z,0.00
2022-11-18T01:16:04.544Z,0.00
2022-11-18T01:17:04.552Z,0.00
2022-11-18T01:18:04.560Z,0.00
2022-11-18T01:19:04.567Z,0.00
2022-11-18T01:20:04.575Z,0.00
2022-11-18T01:21:04.585Z,0.00
2022-11-18T01:22:04.590Z,0.00
2022-11-18T01:23:04.598Z,0.00
2022-11-18T01:24:04.606Z,0.00
2022-11-18T01:25:04.615Z,0.00
2022-11-18T01:26:04.624Z,0.00
2022-11-18T01:27:04.629Z,0.00
2022-11-18T01:28:04.639Z,0.00
2022-11-18T01:29:04.648Z,0.00
2022-11-18T01:30:04.654Z,0.00
2022-11-18T01:31:04.667Z,0.00
2022-11-18T01:33:04.679Z,0.00
2022-11-18T01:34:04.688Z,0.00
2022-11-18T01:35:04.693Z,0.00
2022-11-18T01:36:04.702Z,0.00
2022-11-18T01:37:04.711Z,0.00
2022-11-18T01:38:04.716Z,0.00
2022-11-18T01:39:04.724Z,0.00
2022-11-18T01:40:04.731Z,0.00
2022-11-18T01:41:04.742Z,0.00
2022-11-18T01:42:04.751Z,0.00
2022-11-18T01:43:04.759Z,0.00
2022-11-18T01:44:04.765Z,0.00
2022-11-18T01:45:04.776Z,0.00
2022-11-18T01:46:04.780Z,0.00
2022-11-18T01:47:04.792Z,0.00
2022-11-18T01:48:04.797Z,0.00
2022-11-18T01:49:04.807Z,0.00
2022-11-18T01:50:04.814Z,0.00
2022-11-18T01:51:04.829Z,0.00
2022-11-18T01:52:04.831Z,0.00
2022-11-18T01:53:04.839Z,0.00
2022-11-18T01:54:04.846Z,0.00
2022-11-18T01:55:04.853Z,0.00
2022-11-18T01:56:04.862Z,0.00
2022-11-18T01:57:04.868Z,0.00
2022-11-18T01:58:04.878Z,0.00
2022-11-18T01:59:04.887Z,0.00
2022-11-18T02:00:04.893Z,0.00
2022-11-18T02:01:04.928Z,0.00
2022-11-18T02:02:04.953Z,0.00
2022-11-18T02:03:04.916Z,0.00
2022-11-18T02:04:04.925Z,0.00
2022-11-18T02:05:04.940Z,0.00
2022-11-18T02:06:04.945Z,0.00
2022-11-18T02:07:04.993Z,0.00
2022-11-18T02:08:04.956Z,0.00
2022-11-18T02:09:04.972Z,0.00
2022-11-18T02:10:04.984Z,0.00
2022-11-18T02:11:04.980Z,0.00
2022-11-18T02:12:05.049Z,0.00
2022-11-18T02:13:04.996Z,0.00
2022-11-18T02:14:05.004Z,0.00
2022-11-18T02:15:05.011Z,0.00
2022-11-18T02:16:05.018Z,0.00
2022-11-18T02:17:05.029Z,0.00
2022-11-18T02:18:05.035Z,0.00
2022-11-18T02:19:05.041Z,0.00
2022-11-18T02:20:05.048Z,0.00
2022-11-18T02:21:05.060Z,0.00
2022-11-18T02:22:05.064Z,0.00
2022-11-18T02:23:05.078Z,0.00
2022-11-18T02:24:05.083Z,0.00
2022-11-18T02:25:05.169Z,0.00
2022-11-18T02:26:05.096Z,0.00
2022-11-18T02:27:05.103Z,0.00
2022-11-18T02:28:05.109Z,0.00
2022-11-18T02:29:05.123Z,0.00
2022-11-18T02:30:05.152Z,0.00
2022-11-18T02:31:05.133Z,0.00
2022-11-18T02:32:05.148Z,0.00
2022-11-18T02:33:05.149Z,0.00
2022-11-18T02:34:05.156Z,0.00
2022-11-18T02:35:05.163Z,0.00
2022-11-18T02:36:05.172Z,0.00
2022-11-18T02:37:05.181Z,0.00
2022-11-18T02:38:05.187Z,0.00
2022-11-18T02:39:05.199Z,0.00
2022-11-18T02:40:05.204Z,0.00
2022-11-18T02:41:05.209Z,0.00
2022-11-18T02:42:05.221Z,0.00
2022-11-18T02:43:05.224Z,0.00
2022-11-18T02:44:05.232Z,0.00
2022-11-18T02:45:05.239Z,0.00
2022-11-18T02:46:05.246Z,0.00
2022-11-18T02:47:05.260Z,0.00
2022-11-18T02:48:05.266Z,0.00
2022-11-18T02:49:05.273Z,0.00
2022-11-18T02:50:05.278Z,0.00
2022-11-18T02:51:05.284Z,0.00
2022-11-18T02:52:05.291Z,0.00
2022-11-18T02:53:05.302Z,0.00
2022-11-18T02:54:05.307Z,0.00
2022-11-18T02:55:05.315Z,0.00
2022-11-18T02:56:05.323Z,0.00
2022-11-18T02:57:05.330Z,0.00
2022-11-18T02:58:05.339Z,0.00
2022-11-18T02:59:05.348Z,0.00
2022-11-18T03:00:05.356Z,0.00
2022-11-18T03:01:05.377Z,0.00
2022-11-18T03:02:05.370Z,0.00
2022-11-18T03:03:05.376Z,0.00
2022-11-18T03:04:05.384Z,0.00
2022-11-18T03:05:05.397Z,0.00
2022-11-18T03:06:05.398Z,0.00
2022-11-18T03:07:05.433Z,0.00
2022-11-18T03:08:05.414Z,0.00
2022-11-18T03:09:05.419Z,0.00
2022-11-18T03:10:05.429Z,0.00
2022-11-18T03:11:05.435Z,0.00
2022-11-18T03:12:05.450Z,0.00
2022-11-18T03:13:05.452Z,0.00
2022-11-18T03:14:05.460Z,0.00
2022-11-18T03:15:05.466Z,0.00
2022-11-18T03:16:05.472Z,0.00
2022-11-18T03:17:05.480Z,0.00
2022-11-18T03:18:05.489Z,0.00
2022-11-18T03:19:05.499Z,0.00
2022-11-18T03:20:05.502Z,0.00
2022-11-18T03:21:05.511Z,0.00
2022-11-18T03:22:05.518Z,0.00
2022-11-18T03:23:05.526Z,0.00
2022-11-18T03:24:05.537Z,0.00
2022-11-18T03:25:05.540Z,0.00
2022-11-18T03:26:05.549Z,0.00
2022-11-18T03:27:05.554Z,0.00
2022-11-18T03:28:05.568Z,0.00
2022-11-18T03:29:05.569Z,0.00
2022-11-18T03:30:05.578Z,0.00
2022-11-18T03:31:05.585Z,0.00
2022-11-18T03:32:05.595Z,0.00
2022-11-18T03:33:05.600Z,0.00
2022-11-18T03:34:05.608Z,0.00
2022-11-18T03:35:05.614Z,0.00
2022-11-18T03:36:05.623Z,0.00
2022-11-18T03:37:10.255Z,0.00
2022-11-18T03:38:05.636Z,0.00
2022-11-18T03:39:05.645Z,0.00
2022-11-18T03:40:05.653Z,0.00
2022-11-18T03:41:05.658Z,0.00
2022-11-18T03:42:05.667Z,0.00
2022-11-18T03:43:05.674Z,0.00
2022-11-18T03:44:05.681Z,0.00
2022-11-18T03:45:05.689Z,0.00
2022-11-18T03:46:05.696Z,0.00
2022-11-18T03:47:05.704Z,0.00
2022-11-18T03:48:05.711Z,0.00
2022-11-18T03:49:05.717Z,0.00
2022-11-18T03:50:05.731Z,0.00
2022-11-18T03:51:05.732Z,0.00
2022-11-18T03:52:05.740Z,0.00
2022-11-18T03:53:05.747Z,0.00
2022-11-18T03:54:05.754Z,0.00
2022-11-18T03:55:05.773Z,0.00
2022-11-18T03:56:05.768Z,0.00
2022-11-18T03:57:05.776Z,0.00
2022-11-18T03:58:05.781Z,0.00
2022-11-18T03:59:05.786Z,0.00
2022-11-18T04:00:05.797Z,0.00
2022-11-18T04:01:05.806Z,0.00
2022-11-18T04:02:05.854Z,0.00
2022-11-18T04:03:05.817Z,0.00
2022-11-18T04:04:05.826Z,0.00
2022-11-18T04:05:05.832Z,0.00
2022-11-18T04:06:05.840Z,0.00
2022-11-18T04:07:05.906Z,0.00
2022-11-18T04:08:05.879Z,0.00
2022-11-18T04:09:05.896Z,0.00
2022-11-18T04:10:05.878Z,0.00
2022-11-18T04:11:05.884Z,0.00
2022-11-18T04:12:05.918Z,0.00
2022-11-18T04:13:06.622Z,0.00
2022-11-18T04:14:05.925Z,0.00
2022-11-18T04:15:05.926Z,0.00
2022-11-18T04:16:05.939Z,0.00
2022-11-18T04:17:05.932Z,0.00
2022-11-18T04:18:05.933Z,0.00
2022-11-18T04:19:06.443Z,0.00
2022-11-18T04:20:05.937Z,0.00
2022-11-18T04:21:05.997Z,0.00
2022-11-18T04:22:05.953Z,0.00
2022-11-18T04:23:05.959Z,0.00
2022-11-18T04:24:05.966Z,0.00
2022-11-18T04:25:05.973Z,0.00
2022-11-18T04:26:05.980Z,0.00
2022-11-18T04:27:05.988Z,0.00
2022-11-18T04:28:05.995Z,0.00
2022-11-18T04:29:06.002Z,0.00
2022-11-18T04:30:06.018Z,0.00
2022-11-18T04:31:06.018Z,0.00
2022-11-18T04:32:06.029Z,0.00
2022-11-18T04:33:06.037Z,0.00
2022-11-18T04:34:06.037Z,0.00
2022-11-18T04:35:06.044Z,0.00
2022-11-18T04:36:06.051Z,0.00
2022-11-18T04:37:06.061Z,0.00
2022-11-18T04:38:06.064Z,0.00
2022-11-18T04:39:06.073Z,0.00
2022-11-18T04:40:06.079Z,0.00
2022-11-18T04:41:06.087Z,0.00
2022-11-18T04:42:06.093Z,0.00
2022-11-18T04:43:06.102Z,0.00
2022-11-18T04:44:06.108Z,0.00
2022-11-18T04:45:06.117Z,0.00
2022-11-18T04:46:06.122Z,0.00
2022-11-18T04:47:06.130Z,0.00
2022-11-18T04:48:06.134Z,0.00
2022-11-18T04:49:06.145Z,0.00
2022-11-18T04:50:06.152Z,0.00
2022-11-18T04:51:06.166Z,0.00
2022-11-18T04:52:06.167Z,0.00
2022-11-18T04:53:06.171Z,0.00
2022-11-18T04:54:06.181Z,0.00
2022-11-18T04:55:06.193Z,0.00
2022-11-18T04:56:06.191Z,0.00
2022-11-18T04:57:06.199Z,0.00
2022-11-18T04:58:06.209Z,0.00
2022-11-18T04:59:06.214Z,0.00
2022-11-18T05:00:06.223Z,0.00
2022-11-18T05:01:06.282Z,0.00
2022-11-18T05:02:06.235Z,0.00
2022-11-18T05:03:06.238Z,0.00
2022-11-18T05:04:06.253Z,0.00
2022-11-18T05:05:06.257Z,0.00
2022-11-18T05:06:06.261Z,0.00
2022-11-18T05:07:06.419Z,0.00
2022-11-18T05:08:06.276Z,0.00
2022-11-18T05:09:06.282Z,0.00
2022-11-18T05:10:06.291Z,0.00
2022-11-18T05:11:06.297Z,0.00
2022-11-18T05:12:06.305Z,0.00
2022-11-18T05:13:06.311Z,0.00
2022-11-18T05:14:06.317Z,0.00
2022-11-18T05:15:06.325Z,0.00
2022-11-18T05:16:06.333Z,0.00
2022-11-18T05:17:06.339Z,0.00
2022-11-18T05:18:06.354Z,0.00
2022-11-18T05:19:06.355Z,0.00
2022-11-18T05:20:06.359Z,0.00
2022-11-18T05:21:06.367Z,0.00
2022-11-18T05:22:06.375Z,0.00
2022-11-18T05:23:06.380Z,0.00
2022-11-18T05:24:06.388Z,0.00
2022-11-18T05:25:06.399Z,0.00
2022-11-18T05:26:06.401Z,0.00
2022-11-18T05:27:06.408Z,0.00
2022-11-18T05:28:06.418Z,0.00
2022-11-18T05:29:06.425Z,0.00
2022-11-18T05:30:06.432Z,0.00
2022-11-18T05:31:06.437Z,0.00
2022-11-18T05:32:06.448Z,0.00
2022-11-18T05:33:06.452Z,0.00
2022-11-18T05:34:06.456Z,0.00
2022-11-18T05:35:06.467Z,0.00
2022-11-18T05:36:06.467Z,0.00
2022-11-18T05:37:06.476Z,0.00
2022-11-18T05:38:06.484Z,0.00
2022-11-18T05:39:06.492Z,0.00
2022-11-18T05:40:06.499Z,0.00
2022-11-18T05:41:06.506Z,0.00
2022-11-18T05:42:06.511Z,0.00
2022-11-18T05:43:06.519Z,0.00
2022-11-18T05:44:06.528Z,0.00
2022-11-18T05:45:06.538Z,0.00
2022-11-18T05:46:06.540Z,0.00
2022-11-18T05:47:06.550Z,0.00
2022-11-18T05:48:06.555Z,0.00
2022-11-18T05:49:06.564Z,0.00
2022-11-18T05:50:06.568Z,0.00
2022-11-18T05:51:06.576Z,0.00
2022-11-18T05:52:06.585Z,0.00
2022-11-18T05:53:06.593Z,0.00
2022-11-18T05:54:06.599Z,0.00
2022-11-18T05:55:06.608Z,0.00
2022-11-18T05:56:06.616Z,0.00
2022-11-18T05:57:06.619Z,0.00
2022-11-18T05:58:06.631Z,0.00
2022-11-18T05:59:06.639Z,0.00
2022-11-18T06:00:06.643Z,0.00
2022-11-18T06:01:06.651Z,0.00
2022-11-18T06:02:06.655Z,0.00
2022-11-18T06:03:06.802Z,0.00
2022-11-18T06:04:06.671Z,0.00
2022-11-18T06:05:06.678Z,0.00
2022-11-18T06:06:06.686Z,0.00
2022-11-18T06:07:06.772Z,0.00
2022-11-18T06:08:06.702Z,0.00
2022-11-18T06:09:06.705Z,0.00
2022-11-18T06:10:06.712Z,0.00
2022-11-18T06:11:06.720Z,0.00
2022-11-18T06:12:06.727Z,0.00
2022-11-18T06:13:06.734Z,0.00
2022-11-18T06:14:06.740Z,0.00
2022-11-18T06:15:06.747Z,0.00
2022-11-18T06:16:06.755Z,0.00
2022-11-18T06:17:06.764Z,0.00
2022-11-18T06:18:06.770Z,0.00
2022-11-18T06:19:06.784Z,0.00
2022-11-18T06:20:06.784Z,0.00
2022-11-18T06:21:06.846Z,0.00
2022-11-18T06:22:06.800Z,0.00
2022-11-18T06:23:06.810Z,0.00
2022-11-18T06:24:06.812Z,0.00
2022-11-18T06:25:06.820Z,0.00
2022-11-18T06:26:06.826Z,0.00
2022-11-18T06:27:06.833Z,0.00
2022-11-18T06:28:06.839Z,0.00
2022-11-18T06:29:06.847Z,0.00
2022-11-18T06:30:06.855Z,0.00
2022-11-18T06:31:06.863Z,0.00
2022-11-18T06:32:06.867Z,0.00
2022-11-18T06:33:06.877Z,0.00
2022-11-18T06:34:06.878Z,0.00
2022-11-18T06:35:06.892Z,0.00
2022-11-18T06:36:06.896Z,0.00
2022-11-18T06:37:06.905Z,5.63
2022-11-18T06:38:06.909Z,5.63
2022-11-18T06:39:06.919Z,5.63
2022-11-18T06:40:06.923Z,5.63
2022-11-18T06:41:06.930Z,5.63
2022-11-18T06:42:06.937Z,5.63
2022-11-18T06:43:06.944Z,5.63
2022-11-18T06:44:06.951Z,5.63
2022-11-18T06:45:06.964Z,5.63
2022-11-18T06:46:09.357Z,5.63
2022-11-18T06:47:06.977Z,5.63
2022-11-18T06:48:06.979Z,5.63
2022-11-18T06:49:06.988Z,5.63
2022-11-18T06:50:06.994Z,11.25
2022-11-18T06:51:07.001Z,11.25
2022-11-18T06:52:07.010Z,11.25
2022-11-18T06:53:07.017Z,11.25
2022-11-18T06:54:10.665Z,11.25
2022-11-18T06:55:07.028Z,11.25
2022-11-18T06:56:07.036Z,11.25
2022-11-18T06:57:07.042Z,11.25
2022-11-18T06:58:07.049Z,16.88
2022-11-18T06:59:07.055Z,16.88
2022-11-18T07:00:07.083Z,16.88
2022-11-18T07:01:07.118Z,16.88
2022-11-18T07:02:07.075Z,16.88
2022-11-18T07:03:07.086Z,16.88
2022-11-18T07:04:07.096Z,16.88
2022-11-18T07:05:07.098Z,16.88
2022-11-18T07:06:07.104Z,22.50
2022-11-18T07:07:07.203Z,22.50
2022-11-18T07:08:07.119Z,16.88
2022-11-18T07:09:07.140Z,22.50
2022-11-18T07:10:07.132Z,16.88
2022-11-18T07:11:07.139Z,16.88
2022-11-18T07:12:07.145Z,16.88
2022-11-18T07:13:07.154Z,16.88
2022-11-18T07:14:07.159Z,16.88
2022-11-18T07:15:07.169Z,16.88
2022-11-18T07:16:07.177Z,22.50
2022-11-18T07:17:07.182Z,22.50
2022-11-18T07:18:07.185Z,22.50
2022-11-18T07:19:07.194Z,22.50
2022-11-18T07:20:07.204Z,22.50
2022-11-18T07:21:07.208Z,22.50
2022-11-18T07:22:07.213Z,22.50
2022-11-18T07:23:07.222Z,22.50
2022-11-18T07:24:07.230Z,28.13
2022-11-18T07:25:07.235Z,28.13
2022-11-18T07:26:07.240Z,28.13
2022-11-18T07:27:07.247Z,28.13
2022-11-18T07:28:07.255Z,33.75
2022-11-18T07:29:07.262Z,33.75
2022-11-18T07:30:07.270Z,39.38
2022-11-18T07:31:07.274Z,39.38
2022-11-18T07:32:07.282Z,39.38
2022-11-18T07:33:07.288Z,39.38
2022-11-18T07:34:07.298Z,45.00
2022-11-18T07:35:07.302Z,45.00
2022-11-18T07:36:07.309Z,45.00
2022-11-18T07:37:07.315Z,45.00
2022-11-18T07:38:07.319Z,50.63
2022-11-18T07:39:07.339Z,50.63
2022-11-18T07:40:07.335Z,50.63
2022-11-18T07:41:07.340Z,56.25
2022-11-18T07:42:07.350Z,56.25
2022-11-18T07:43:07.359Z,56.25
2022-11-18T07:44:07.363Z,61.88
2022-11-18T07:45:07.369Z,67.50
2022-11-18T07:46:07.373Z,73.13
2022-11-18T07:47:07.382Z,73.13
2022-11-18T07:48:07.388Z,78.75
2022-11-18T07:49:07.394Z,84.38
2022-11-18T07:50:07.401Z,90.00
2022-11-18T07:51:07.407Z,90.00
2022-11-18T07:52:07.413Z,101.25
2022-11-18T07:53:07.422Z,106.88
2022-11-18T07:54:07.427Z,106.88
2022-11-18T07:55:07.437Z,118.13
2022-11-18T07:56:07.439Z,123.75
2022-11-18T07:57:07.450Z,129.38
2022-11-18T07:58:07.458Z,129.38
2022-11-18T07:59:07.459Z,135.00
2022-11-18T08:00:07.468Z,140.63
2022-11-18T08:01:07.523Z,140.63
2022-11-18T08:02:07.480Z,146.25
2022-11-18T08:03:08.024Z,151.88
2022-11-18T08:04:07.498Z,151.88
2022-11-18T08:05:07.585Z,151.88
2022-11-18T08:06:07.509Z,157.50
2022-11-18T08:07:07.564Z,157.50
2022-11-18T08:08:07.523Z,157.50
2022-11-18T08:09:07.531Z,163.13
2022-11-18T08:10:07.534Z,163.13
2022-11-18T08:11:07.547Z,168.75
2022-11-18T08:12:07.549Z,168.75
2022-11-18T08:13:07.559Z,174.38
2022-11-18T08:14:07.564Z,185.63
2022-11-18T08:15:07.569Z,191.25
2022-11-18T08:16:07.578Z,202.50
2022-11-18T08:17:07.585Z,208.13
2022-11-18T08:18:12.409Z,213.75
2022-11-18T08:19:07.599Z,219.38
2022-11-18T08:20:07.609Z,225.00
2022-11-18T08:21:07.612Z,230.63
2022-11-18T08:22:07.620Z,241.88
2022-11-18T08:23:07.626Z,241.88
2022-11-18T08:24:07.635Z,247.50
2022-11-18T08:25:07.641Z,253.13
2022-11-18T08:26:07.647Z,247.50
2022-11-18T08:27:07.654Z,270.00
2022-11-18T08:28:07.671Z,270.00
2022-11-18T08:29:07.670Z,270.00
2022-11-18T08:30:07.681Z,275.63
2022-11-18T08:31:07.693Z,258.75
2022-11-18T08:32:07.701Z,258.75
2022-11-18T08:33:07.702Z,264.38
2022-11-18T08:34:07.722Z,264.38
2022-11-18T08:35:11.123Z,253.13
2022-11-18T08:36:07.722Z,247.50
2022-11-18T08:37:07.735Z,230.63
2022-11-18T08:38:07.735Z,225.00
2022-11-18T08:39:07.746Z,225.00
2022-11-18T08:40:07.752Z,213.75
2022-11-18T08:41:07.760Z,213.75
2022-11-18T08:42:07.764Z,202.50
2022-11-18T08:43:07.778Z,202.50
2022-11-18T08:44:07.778Z,191.25
2022-11-18T08:45:07.787Z,180.00
2022-11-18T08:46:07.793Z,180.00
2022-11-18T08:47:07.800Z,180.00
2022-11-18T08:48:07.808Z,180.00
2022-11-18T08:49:07.815Z,180.00
2022-11-18T08:50:07.820Z,180.00
2022-11-18T08:51:07.830Z,174.38
2022-11-18T08:52:07.839Z,174.38
2022-11-18T08:53:07.847Z,174.38
2022-11-18T08:54:07.850Z,185.63
2022-11-18T08:55:07.860Z,185.63
2022-11-18T08:56:07.866Z,185.63
2022-11-18T08:57:07.872Z,191.25
2022-11-18T08:58:07.879Z,191.25
2022-11-18T08:59:07.887Z,208.13
2022-11-18T09:00:07.894Z,208.13
2022-11-18T09:01:07.925Z,202.50
2022-11-18T09:02:07.954Z,202.50
2022-11-18T09:03:07.916Z,219.38
2022-11-18T09:04:07.924Z,213.75
2022-11-18T09:05:07.934Z,236.25
2022-11-18T09:06:07.937Z,236.25
2022-11-18T09:07:07.969Z,225.00
2022-11-18T09:08:07.954Z,230.63
2022-11-18T09:09:07.962Z,241.88
2022-11-18T09:10:07.968Z,241.88
2022-11-18T09:11:07.974Z,247.50
2022-11-18T09:12:07.982Z,247.50
2022-11-18T09:13:40.020Z,241.88
2022-11-18T09:15:06.310Z,236.25
2022-11-18T09:15:15.475Z,219.38
2022-11-18T09:16:08.012Z,202.50
2022-11-18T09:17:08.022Z,202.50
2022-11-18T09:18:08.027Z,208.13
2022-11-18T09:19:39.555Z,191.25
2022-11-18T09:20:08.044Z,196.88
2022-11-18T09:21:08.050Z,208.13
2022-11-18T09:22:08.056Z,213.75
2022-11-18T09:23:08.064Z,208.13
2022-11-18T09:24:08.072Z,230.63
2022-11-18T09:25:08.080Z,247.50
2022-11-18T09:26:08.086Z,230.63
2022-11-18T09:27:12.220Z,185.63
2022-11-18T09:28:08.103Z,151.88
2022-11-18T09:29:08.108Z,168.75
2022-11-18T09:30:08.116Z,157.50
2022-11-18T09:31:08.126Z,157.50
2022-11-18T09:32:08.135Z,151.88
2022-11-18T09:33:08.138Z,140.63
2022-11-18T09:34:08.146Z,140.63
2022-11-18T09:35:08.155Z,146.25
2022-11-18T09:36:08.160Z,140.63
2022-11-18T09:37:08.171Z,129.38
2022-11-18T09:38:08.175Z,129.38
2022-11-18T09:39:08.182Z,135.00
2022-11-18T09:40:08.201Z,146.25
2022-11-18T09:41:08.197Z,151.88
2022-11-18T09:42:08.204Z,163.13
2022-11-18T09:43:08.211Z,180.00
2022-11-18T09:44:08.220Z,180.00
2022-11-18T09:45:13.158Z,174.38
2022-11-18T09:46:08.233Z,180.00
2022-11-18T09:47:08.242Z,180.00
2022-11-18T09:48:08.248Z,180.00
2022-11-18T09:49:08.258Z,191.25
2022-11-18T09:50:33.920Z,230.63
2022-11-18T09:51:08.270Z,247.50
2022-11-18T09:52:08.276Z,264.38
2022-11-18T09:53:08.284Z,270.00
2022-11-18T09:54:08.291Z,270.00
2022-11-18T09:55:08.297Z,286.88
2022-11-18T09:56:08.372Z,253.13
2022-11-18T09:57:08.314Z,219.38
2022-11-18T09:58:08.320Z,219.38
2022-11-18T09:59:08.329Z,241.88
2022-11-18T10:00:08.339Z,208.13
2022-11-18T10:01:08.396Z,208.13
2022-11-18T10:02:08.383Z,236.25
2022-11-18T10:03:08.358Z,225.00
2022-11-18T10:04:08.366Z,225.00
2022-11-18T10:05:08.372Z,202.50
2022-11-18T10:06:08.386Z,185.63
2022-11-18T10:07:08.416Z,180.00
2022-11-18T10:08:08.395Z,196.88
2022-11-18T10:09:08.406Z,196.88
2022-11-18T10:10:08.411Z,196.88
2022-11-18T10:11:08.418Z,180.00
2022-11-18T10:12:08.425Z,157.50
2022-11-18T10:13:08.433Z,140.63
2022-11-18T10:14:08.442Z,129.38
2022-11-18T10:15:08.449Z,101.25
2022-11-18T10:16:08.456Z,90.00
2022-11-18T10:17:08.465Z,84.38
2022-11-18T10:18:08.469Z,84.38
2022-11-18T10:19:08.477Z,90.00
2022-11-18T10:20:08.484Z,95.63
2022-11-18T10:21:08.496Z,90.00
2022-11-18T10:22:15.625Z,90.00
2022-11-18T10:23:08.509Z,90.00
2022-11-18T10:24:08.515Z,101.25
2022-11-18T10:25:08.524Z,112.50
2022-11-18T10:26:08.532Z,112.50
2022-11-18T10:27:08.539Z,112.50
2022-11-18T10:28:08.547Z,123.75
2022-11-18T10:29:08.553Z,123.75
2022-11-18T10:30:08.560Z,129.38
2022-11-18T10:31:08.568Z,135.00
2022-11-18T10:32:08.577Z,151.88
2022-11-18T10:33:08.582Z,140.63
2022-11-18T10:34:08.587Z,118.13
2022-11-18T10:35:08.596Z,123.75
2022-11-18T10:36:08.606Z,118.13
2022-11-18T10:37:08.620Z,95.63
2022-11-18T10:38:09.126Z,90.00
2022-11-18T10:39:08.631Z,84.38
2022-11-18T10:40:08.633Z,84.38
2022-11-18T10:41:08.641Z,84.38
2022-11-18T10:42:08.646Z,78.75
2022-11-18T10:43:08.656Z,78.75
2022-11-18T10:44:12.161Z,78.75
2022-11-18T10:45:08.671Z,78.75
2022-11-18T10:46:08.675Z,90.00
2022-11-18T10:47:08.683Z,112.50
2022-11-18T10:48:08.689Z,106.88
2022-11-18T10:49:08.701Z,106.88
2022-11-18T10:50:08.716Z,95.63
2022-11-18T10:51:08.716Z,90.00
2022-11-18T10:52:08.719Z,106.88
2022-11-18T10:53:08.729Z,140.63
2022-11-18T10:54:08.733Z,140.63
2022-11-18T10:55:08.740Z,129.38
2022-11-18T10:56:08.747Z,146.25
2022-11-18T10:57:08.754Z,157.50
2022-11-18T10:58:08.794Z,168.75
2022-11-18T10:59:08.766Z,180.00
2022-11-18T11:00:08.775Z,185.63
2022-11-18T11:01:08.935Z,191.25
2022-11-18T11:02:10.088Z,185.63
2022-11-18T11:03:08.795Z,174.38
2022-11-18T11:04:08.803Z,163.13
2022-11-18T11:05:08.811Z,151.88
2022-11-18T11:06:08.816Z,151.88
2022-11-18T11:07:08.859Z,157.50
2022-11-18T11:08:34.996Z,174.38
2022-11-18T11:09:08.842Z,174.38
2022-11-18T11:10:08.844Z,163.13
2022-11-18T11:11:08.854Z,157.50
2022-11-18T11:12:08.861Z,163.13
2022-11-18T11:13:08.873Z,168.75
2022-11-18T11:14:08.872Z,174.38
2022-11-18T11:15:08.881Z,163.13
2022-11-18T11:16:08.888Z,174.38
2022-11-18T11:17:08.948Z,180.00
2022-11-18T11:18:08.904Z,180.00
2022-11-18T11:19:08.909Z,191.25
2022-11-18T11:20:08.914Z,225.00
2022-11-18T11:21:08.925Z,225.00
2022-11-18T11:22:08.933Z,202.50
2022-11-18T11:23:08.939Z,185.63
2022-11-18T11:24:08.949Z,191.25
2022-11-18T11:25:08.954Z,185.63
2022-11-18T11:28:16.767Z,168.75
2022-11-18T11:29:08.985Z,180.00
2022-11-18T11:30:08.995Z,174.38
2022-11-18T11:31:08.997Z,174.38
2022-11-18T11:32:09.006Z,174.38
2022-11-18T11:33:09.012Z,168.75
2022-11-18T11:34:09.019Z,168.75
2022-11-18T11:35:09.023Z,157.50
2022-11-18T11:36:09.034Z,168.75
2022-11-18T11:37:09.044Z,163.13
2022-11-18T11:38:09.047Z,151.88
2022-11-18T11:39:09.054Z,151.88
2022-11-18T11:40:09.065Z,174.38
2022-11-18T11:41:09.070Z,180.00
2022-11-18T11:42:09.078Z,180.00
2022-11-18T11:43:09.085Z,174.38
2022-11-18T11:44:09.094Z,157.50
2022-11-18T11:45:09.110Z,151.88
2022-11-18T11:46:09.108Z,163.13
2022-11-18T11:47:09.118Z,168.75
2022-11-18T11:48:09.121Z,163.13
2022-11-18T11:49:09.131Z,168.75
2022-11-18T11:50:09.137Z,168.75
2022-11-18T11:51:09.145Z,151.88
2022-11-18T11:52:09.151Z,151.88
2022-11-18T11:53:09.160Z,163.13
2022-11-18T11:54:09.174Z,163.13
2022-11-18T11:55:09.174Z,157.50
2022-11-18T11:56:09.183Z,151.88
2022-11-18T11:57:09.191Z,146.25
2022-11-18T11:58:09.195Z,140.63
2022-11-18T11:59:09.216Z,146.25
2022-11-18T12:00:09.214Z,140.63
2022-11-18T12:01:09.223Z,135.00
2022-11-18T12:02:09.226Z,146.25
2022-11-18T12:03:09.249Z,151.88
2022-11-18T12:04:09.241Z,157.50
2022-11-18T12:05:09.252Z,163.13
2022-11-18T12:06:09.258Z,163.13
2022-11-18T12:07:09.342Z,157.50
2022-11-18T12:08:09.271Z,157.50
2022-11-18T12:09:09.280Z,151.88
2022-11-18T12:10:09.287Z,151.88
2022-11-18T12:11:09.294Z,146.25
2022-11-18T12:12:09.303Z,140.63
2022-11-18T12:13:09.310Z,140.63
2022-11-18T12:14:09.316Z,140.63
2022-11-18T12:15:09.324Z,140.63
2022-11-18T12:16:09.332Z,140.63
2022-11-18T12:17:09.342Z,129.38
2022-11-18T12:18:09.346Z,123.75
2022-11-18T12:19:09.355Z,123.75
2022-11-18T12:20:09.367Z,129.38
2022-11-18T12:21:09.372Z,140.63
2022-11-18T12:22:09.376Z,135.00
2022-11-18T12:23:09.382Z,135.00
2022-11-18T12:24:09.394Z,135.00
2022-11-18T12:25:09.403Z,146.25
2022-11-18T12:26:09.412Z,151.88
2022-11-18T12:27:09.413Z,151.88
2022-11-18T12:28:09.421Z,146.25
2022-11-18T12:29:09.429Z,140.63
2022-11-18T12:30:09.437Z,140.63
2022-11-18T12:31:09.443Z,146.25
2022-11-18T12:32:09.456Z,157.50
2022-11-18T12:33:09.459Z,157.50
2022-11-18T12:34:09.466Z,163.13
2022-11-18T12:35:09.475Z,174.38
2022-11-18T12:36:09.481Z,174.38
2022-11-18T12:37:09.488Z,163.13
2022-11-18T12:38:09.496Z,168.75
2022-11-18T12:39:09.505Z,185.63
2022-11-18T12:40:09.514Z,191.25
2022-11-18T12:41:09.532Z,191.25
2022-11-18T12:42:09.528Z,185.63
2022-11-18T12:43:09.543Z,196.88
2022-11-18T12:44:09.547Z,196.88
2022-11-18T12:45:09.550Z,208.13
2022-11-18T12:46:09.561Z,230.63
2022-11-18T12:47:09.565Z,247.50
2022-11-18T12:48:09.582Z,241.88
2022-11-18T12:49:09.600Z,219.38
2022-11-18T12:50:09.599Z,236.25
2022-11-18T12:51:09.605Z,258.75
2022-11-18T12:52:09.604Z,281.25
2022-11-18T12:53:09.611Z,303.75
2022-11-18T12:54:13.700Z,309.38
2022-11-18T12:55:09.628Z,326.25
2022-11-18T12:56:09.638Z,286.88
2022-11-18T12:57:09.646Z,275.63
2022-11-18T12:58:09.650Z,286.88
2022-11-18T12:59:09.658Z,286.88